Airfield :
LOGIN :

Register | Disclaimer

   EN    FR    IT 

 










Legend :    VFR   Marginal VFR   IFR   Intensive IFR   Very Intensive IFR
Visi :
Ceiling :
>= 8 km
>= 3000ft
5 to 8 km
1000 to 3000 ft
1500m to 5 km
500 to 1000 ft
800 to 1500m
200 to 500 ft
< 800m
< 200 ft
Symbols :   Thunderstorms  Fog  Heavy snow  Heavy precipitations  Wind > 20 kt
SIGMETs :     Misc.  Thunderstorms  Icing  Turbulence  Mountain Waves  Volcanic Ashes






- Airport Elevation : 3006 ft
- IATA code : LEN


LELN - Leon

CURRENT METAR :
  • 221200Z 36006KT 280V070 9999 BKN035 14/05 Q1023

EXPIRED METARs :
  • 221130Z 01006KT 290V060 9999 SCT035 14/05 Q1023
  • 221100Z 35006KT 300V070 9999 SCT035 14/05 Q1023
  • 221030Z 01007KT 300V070 9999 SCT035 14/05 Q1023
  • 221000Z 02008KT 340V050 9999 FEW040 13/05 Q1023
  • 220930Z 02006KT 330V070 9999 FEW040 12/05 Q1023

TAF TAF LELN
Valid from the 22 at 09:00 until the 23 at 09:00 UTC


220800Z 2209/2309 VRB05KT 9999 FEW045 TX16/2215Z TN04/2307Z
PROB40
TEMPO 2209/2218 02010KT
PROB40
TEMPO 2223/2309 2500 BR BKN008



MET'MAP, your aeronautical weather chart ! - Copyright ORBIFLY December 2007 - Disclaimer

ORBIFLY MET'MAP TEAM :

Programming & Development : Alexandra Zaïnal
Concept & original design : Baudouin d'Aumeries
Assistance for programming : Marc-Olivier Méhu
Technical & hardware support : Manuel Goepfert

Contact : metmap@orbifly.com




SOURCES & CREDITS :

   NOAA